General Aviation Weather

Text Reports

Enter one or more of the following location identifiers separated by a space:

Zip Code, Four-Character ICAO or Three-Character IATA airport codes.

METAR - Aviation Routine Weather Report
KBEA - Beeville, Texas
Updated at 6:55 PM GMT on February 10, 2016 (12:55 PM CST):
METAR KBEA 101855Z AUTO 00000KT 10SM CLR 24/00 A3034 RMK AO2 T02410003
TAF - Terminal Area Forecast
KBEA - Beeville, Texas
Updated at 6:55 PM GMT on February 10, 2016 (12:55 PM CST):
No TAF is currently available for this location.
Decoded:
No decoded TAF is available.
PIREP - Pilot Weather Report
KBEA - Beeville, Texas
Updated at 6:55 PM GMT on February 10, 2016 (12:55 PM CST):
No PIREP is currently available for this location.
AIRMET - Airmens Meteorological Information
KBEA - Beeville, Texas
Updated at 6:55 PM GMT on February 10, 2016 (12:55 PM CST):
No AIRMET is currently available for this location.
SIGMET - Significant Meteorological Information
KBEA - Beeville, Texas
Updated at 6:55 PM GMT on February 10, 2016 (12:55 PM CST):
No SIGMET is currently available for this location.
NOTAM - Notice to Airmen
KBEA - Beeville, Texas
Updated at 6:55 PM GMT on February 10, 2016 (12:55 PM CST):
No NOTAM is currently available for this location.
Forecast Area
KBEA - Beeville, Texas
Updated at 6:55 PM GMT on February 10, 2016 (12:55 PM CST):
No NOTAM is currently available for this location.
Aviation Weather Maps